Time;durP1;ratioP1;P1;durP2;ratioP2;P2;SDS_P1;SDS_P2;PMS_P1;PMS_P2;Temp;Humidity;BMP_temperature;BMP_pressure;BME280_temperature;BME280_humidity;BME280_pressure;Samples;Min_cycle;Max_cycle;Signal;HPM_P1;HPM_P2
2022/11/11 00:01:35;;;;;;;22.38;8.43;;;;;;;7.92;100.00;101240.31;12226750;19;20031;-82
2022/11/11 00:06:08;;;;;;;21.65;7.97;;;;;;;7.88;100.00;101239.03;12205558;19;20038;-82
2022/11/11 00:10:29;;;;;;;18.17;8.10;;;;;;;7.85;100.00;101249.50;12229752;19;20030;-82
2022/11/11 00:14:49;;;;;;;22.70;7.75;;;;;;;7.83;100.00;101246.13;12205037;19;20588;-82
2022/11/11 00:28:26;;;;;;;20.70;8.18;;;;;;;7.72;100.00;101262.06;12229401;19;20018;-83
2022/11/11 00:32:53;;;;;;;20.00;8.52;;;;;;;7.70;100.00;101261.44;12202776;19;20538;-83
2022/11/11 00:37:13;;;;;;;16.98;6.82;;;;;;;7.67;100.00;101269.19;12230086;19;20021;-82
2022/11/11 00:41:34;;;;;;;22.35;7.40;;;;;;;7.66;100.00;101271.09;12207128;19;20039;-83
2022/11/11 00:50:57;;;;;;;19.88;7.95;;;;;;;7.63;100.00;101265.97;12189872;19;20024;-82
2022/11/11 00:55:14;;;;;;;21.35;8.07;;;;;;;7.60;100.00;101271.03;12219730;19;20013;-82
2022/11/11 00:59:34;;;;;;;23.60;8.68;;;;;;;7.60;100.00;101279.25;12198514;19;20012;-82
2022/11/11 01:03:55;;;;;;;24.67;8.23;;;;;;;7.59;100.00;101286.63;12219938;19;20091;-82
2022/11/11 01:08:15;;;;;;;24.35;8.27;;;;;;;7.60;100.00;101290.22;12199973;19;20106;-82
2022/11/11 01:12:36;;;;;;;24.95;8.85;;;;;;;7.60;100.00;101284.72;12216196;19;20031;-82
2022/11/11 01:16:56;;;;;;;25.85;8.90;;;;;;;7.57;100.00;101291.47;12218300;19;20043;-82
2022/11/11 01:21:22;;;;;;;16.45;8.63;;;;;;;7.49;100.00;101284.19;12198144;19;20030;-83
2022/11/11 01:25:43;;;;;;;21.88;8.77;;;;;;;7.46;100.00;101281.81;12220243;19;20978;-82
2022/11/11 01:30:03;;;;;;;23.38;9.23;;;;;;;7.42;100.00;101275.03;12189545;19;20037;-83
2022/11/11 01:34:24;;;;;;;22.15;8.95;;;;;;;7.42;100.00;101288.75;12217930;19;20493;-82
2022/11/11 01:38:48;;;;;;;20.48;9.32;;;;;;;7.41;100.00;101278.00;12192330;19;20031;-82
2022/11/11 01:43:11;;;;;;;24.02;9.98;;;;;;;7.39;100.00;101267.19;12215077;19;20039;-82
2022/11/11 01:49:17;;;;;;;29.50;11.35;;;;;;;7.38;100.00;101276.47;12195110;19;20031;-83
2022/11/11 01:52:38;;;;;;;25.08;10.20;;;;;;;7.36;100.00;101275.81;12211164;19;20021;-83
2022/11/11 01:57:16;;;;;;;23.75;10.30;;;;;;;7.35;100.00;101271.38;12193204;19;20027;-82
2022/11/11 02:01:37;;;;;;;29.65;11.43;;;;;;;7.34;100.00;101264.19;12210791;19;20497;-83
2022/11/11 02:05:58;;;;;;;31.17;10.55;;;;;;;7.31;100.00;101259.94;12189224;19;20031;-82
2022/11/11 02:10:23;;;;;;;23.80;10.38;;;;;;;7.30;100.00;101258.25;12209716;19;20031;-82
2022/11/11 02:14:48;;;;;;;27.30;10.48;;;;;;;7.30;100.00;101250.00;12187826;19;20031;-82
2022/11/11 02:19:08;;;;;;;22.13;9.85;;;;;;;7.29;100.00;101251.06;12212234;19;20458;-82
2022/11/11 02:23:42;;;;;;;27.45;9.23;;;;;;;7.27;100.00;101253.13;12189089;19;20017;-82
2022/11/11 02:28:09;;;;;;;26.30;9.73;;;;;;;7.26;100.00;101258.84;12215491;19;20382;-81
2022/11/11 02:32:42;;;;;;;21.38;8.90;;;;;;;7.25;100.00;101259.84;12186766;19;20580;-82
2022/11/11 02:37:06;;;;;;;16.60;6.13;;;;;;;7.23;100.00;101257.31;12210100;19;20031;-82
2022/11/11 02:50:34;;;;;;;20.38;8.57;;;;;;;7.22;100.00;101244.63;12199603;19;20122;-82
2022/11/11 02:54:55;;;;;;;25.15;8.80;;;;;;;7.21;100.00;101253.91;12212991;19;20013;-83
2022/11/11 02:59:15;;;;;;;27.30;9.52;;;;;;;7.23;100.00;101278.41;12200734;19;20044;-82
2022/11/11 03:03:35;;;;;;;21.33;9.27;;;;;;;7.17;100.00;101274.53;12223218;19;20027;-82
2022/11/11 03:07:56;;;;;;;26.63;8.93;;;;;;;7.15;100.00;101284.00;12249585;19;20030;-82
2022/11/11 03:12:16;;;;;;;25.55;8.55;;;;;;;7.13;100.00;101292.41;12247351;19;20021;-82
2022/11/11 03:21:16;;;;;;;23.45;9.05;;;;;;;7.05;100.00;101304.34;12201889;19;20036;-83
2022/11/11 03:25:56;;;;;;;27.35;8.65;;;;;;;7.05;100.00;101301.59;12234661;19;20043;-83
2022/11/11 03:30:17;;;;;;;19.67;8.57;;;;;;;7.04;100.00;101313.56;12210679;19;20021;-83
2022/11/11 03:34:38;;;;;;;19.10;8.35;;;;;;;7.02;100.00;101309.31;12231769;19;20019;-82
2022/11/11 03:38:58;;;;;;;20.25;7.57;;;;;;;6.98;100.00;101313.50;12211443;19;20039;-82
2022/11/11 03:43:20;;;;;;;22.00;8.30;;;;;;;6.97;100.00;101318.13;12232908;19;20019;-82
2022/11/11 03:47:40;;;;;;;23.20;8.93;;;;;;;6.96;100.00;101315.56;12210885;19;20020;-82
2022/11/11 03:52:02;;;;;;;20.58;8.50;;;;;;;6.91;100.00;101334.47;12227482;19;20024;-82
2022/11/11 03:56:22;;;;;;;23.27;9.52;;;;;;;6.85;100.00;101342.41;12205734;19;20047;-82
2022/11/11 04:00:43;;;;;;;17.40;8.40;;;;;;;6.77;100.00;101353.44;12227798;19;20783;-82
2022/11/11 04:23:41;;;;;;;43.33;11.50;;;;;;;6.30;100.00;101356.47;12199535;19;20020;-82
2022/11/11 04:32:46;;;;;;;25.60;9.93;;;;;;;6.25;100.00;101362.50;12197471;19;20063;-82
2022/11/11 04:37:06;;;;;;;24.60;9.80;;;;;;;6.23;100.00;101356.34;12222648;19;20482;-81
2022/11/11 04:41:26;;;;;;;27.70;10.32;;;;;;;6.14;100.00;101362.94;12197425;19;20017;-82
2022/11/11 04:46:00;;;;;;;22.08;9.95;;;;;;;6.13;100.00;101359.34;12221553;19;20030;-82
2022/11/11 04:50:21;;;;;;;28.48;9.18;;;;;;;6.09;100.00;101354.41;12197057;19;20489;-82
2022/11/11 04:59:20;;;;;;;30.05;10.25;;;;;;;6.16;100.00;101352.66;12200744;19;20039;-82
2022/11/11 05:03:40;;;;;;;37.70;11.43;;;;;;;6.13;100.00;101336.59;12220632;19;20018;-82
2022/11/11 05:12:39;;;;;;;38.85;12.23;;;;;;;5.78;100.00;101338.03;12114749;19;2004468;-82
2022/11/11 05:21:38;;;;;;;28.35;10.25;;;;;;;5.43;100.00;101334.81;12117304;19;2004664;-82
2022/11/11 05:25:59;;;;;;;24.33;9.40;;;;;;;5.45;100.00;101340.97;12267519;19;20091;-82
2022/11/11 05:30:21;;;;;;;53.80;14.43;;;;;;;5.51;100.00;101342.97;12246539;19;20005;-82
2022/11/11 05:34:42;;;;;;;31.80;9.60;;;;;;;5.50;100.00;101352.19;12238453;19;20043;-83
2022/11/11 05:39:02;;;;;;;22.60;8.60;;;;;;;5.48;100.00;101348.78;12212477;19;20030;-83
2022/11/11 05:43:23;;;;;;;25.98;8.77;;;;;;;5.54;100.00;101359.00;12231906;19;20035;-82
2022/11/11 05:47:44;;;;;;;25.25;7.95;;;;;;;5.53;100.00;101364.66;12209662;19;20024;-83
2022/11/11 05:52:05;;;;;;;29.90;9.32;;;;;;;5.50;100.00;101368.59;12229949;19;20046;-83
2022/11/11 05:56:25;;;;;;;44.00;11.18;;;;;;;5.52;100.00;101363.81;12205819;19;20016;-83
2022/11/11 06:00:46;;;;;;;20.58;7.80;;;;;;;5.56;100.00;101378.84;12228399;19;20021;-83
2022/11/11 06:05:07;;;;;;;103.72;18.23;;;;;;;5.56;100.00;101389.78;12206257;19;20017;-81
2022/11/11 06:09:27;;;;;;;45.13;11.93;;;;;;;5.45;100.00;101392.91;12227873;19;20063;-83
2022/11/11 06:13:48;;;;;;;26.92;9.85;;;;;;;5.47;100.00;101390.81;12231297;19;20017;-83
2022/11/11 06:18:08;;;;;;;23.55;8.75;;;;;;;5.59;100.00;101404.94;12203210;19;20038;-84
2022/11/11 06:27:11;;;;;;;28.75;9.18;;;;;;;5.70;100.00;101412.75;12212393;19;20027;-82
2022/11/11 06:31:35;;;;;;;35.30;9.02;;;;;;;5.79;100.00;101419.03;12231959;19;20035;-83
2022/11/11 06:35:55;;;;;;;23.48;7.88;;;;;;;5.83;100.00;101423.13;12205379;19;20043;-83
2022/11/11 06:40:15;;;;;;;38.47;11.52;;;;;;;5.83;100.00;101429.47;12230334;19;20052;-82
2022/11/11 06:44:40;;;;;;;43.38;11.80;;;;;;;5.68;100.00;101426.63;12211374;19;20038;-81
2022/11/11 06:49:01;;;;;;;72.70;12.35;;;;;;;5.67;100.00;101424.91;12234930;19;20803;-81
2022/11/11 06:53:22;;;;;;;50.08;11.32;;;;;;;5.63;100.00;101423.56;12208618;19;20019;-82
2022/11/11 06:57:43;;;;;;;27.65;9.20;;;;;;;5.67;100.00;101424.06;12229319;19;20556;-82
2022/11/11 07:02:03;;;;;;;57.08;13.75;;;;;;;5.70;100.00;101429.16;12224486;19;20025;-81
2022/11/11 07:06:24;;;;;;;47.28;11.57;;;;;;;5.71;100.00;101426.28;12209312;19;20032;-81
2022/11/11 07:10:47;;;;;;;88.35;16.38;;;;;;;5.79;100.00;101446.41;12231954;19;20018;-82
2022/11/11 07:15:07;;;;;;;54.33;11.45;;;;;;;5.84;100.00;101447.56;12205501;19;20027;-82
2022/11/11 07:19:27;;;;;;;65.00;13.63;;;;;;;5.98;100.00;101450.59;12227871;19;20360;-83
2022/11/11 07:23:48;;;;;;;54.33;12.73;;;;;;;6.12;100.00;101445.22;12201364;19;20019;-82
2022/11/11 07:28:08;;;;;;;50.13;12.02;;;;;;;6.25;100.00;101458.31;12223921;19;20021;-82
2022/11/11 07:32:28;;;;;;;39.38;11.02;;;;;;;6.33;100.00;101452.75;12200275;19;20058;-83
2022/11/11 07:36:48;;;;;;;75.13;14.75;;;;;;;6.43;100.00;101462.66;12222577;19;20118;-82
2022/11/11 07:41:09;;;;;;;64.82;14.32;;;;;;;6.49;100.00;101459.19;12201101;19;20352;-82
2022/11/11 07:45:29;;;;;;;55.72;12.65;;;;;;;6.57;100.00;101470.06;12224976;19;20100;-83
2022/11/11 07:49:49;;;;;;;37.97;11.35;;;;;;;6.73;100.00;101469.94;12223464;19;20036;-83
2022/11/11 07:54:15;;;;;;;72.15;15.13;;;;;;;6.78;100.00;101472.09;12199198;19;20372;-83
2022/11/11 07:58:35;;;;;;;38.60;12.27;;;;;;;6.73;100.00;101475.41;12223596;19;20484;-83
2022/11/11 08:02:56;;;;;;;52.40;12.15;;;;;;;6.91;100.00;101482.47;12203630;19;20019;-83
2022/11/11 08:07:18;;;;;;;80.78;14.45;;;;;;;6.91;100.00;101479.72;12230399;19;20031;-84
2022/11/11 08:16:22;;;;;;;77.40;14.70;;;;;;;7.01;100.00;101500.34;12252846;19;20071;-83
2022/11/11 08:20:42;;;;;;;69.35;13.05;;;;;;;7.11;100.00;101497.34;12215767;19;20030;-83
2022/11/11 08:25:15;;;;;;;65.13;13.93;;;;;;;7.20;100.00;101495.38;12239068;19;20022;-83
2022/11/11 08:29:35;;;;;;;62.63;13.73;;;;;;;7.28;100.00;101489.78;12218950;19;20850;-83
2022/11/11 08:33:59;;;;;;;95.97;16.45;;;;;;;7.43;100.00;101492.56;12230913;19;20024;-83
2022/11/11 08:38:22;;;;;;;37.60;10.50;;;;;;;7.54;100.00;101498.44;12211949;19;20009;-83
2022/11/11 08:42:42;;;;;;;74.13;15.23;;;;;;;7.71;100.00;101507.31;12230048;19;20027;-82
2022/11/11 08:47:02;;;;;;;88.03;15.18;;;;;;;7.80;100.00;101507.25;12233316;19;20018;-82
2022/11/11 08:51:23;;;;;;;67.38;12.25;;;;;;;7.96;100.00;101507.88;12204052;19;20958;-82
2022/11/11 08:55:45;;;;;;;86.53;12.98;;;;;;;8.05;100.00;101502.28;12215368;19;20031;-82
2022/11/11 09:00:07;;;;;;;71.85;12.90;;;;;;;8.14;100.00;101512.94;12165863;19;20062;-83
2022/11/11 09:04:27;;;;;;;53.75;10.48;;;;;;;8.31;100.00;101518.22;12211017;19;20013;-82
2022/11/11 09:09:04;;;;;;;65.20;11.77;;;;;;;8.42;100.00;101517.75;12196184;19;20024;-82
2022/11/11 09:13:24;;;;;;;53.13;10.95;;;;;;;8.48;100.00;101525.22;12221860;19;20106;-83
2022/11/11 09:17:47;;;;;;;43.22;11.18;;;;;;;8.45;100.00;101517.38;12199205;19;20027;-83
2022/11/11 09:22:08;;;;;;;103.22;16.08;;;;;;;8.52;100.00;101515.53;12215989;19;20038;-82
2022/11/11 09:26:28;;;;;;;72.40;16.42;;;;;;;8.49;100.00;101509.59;12199359;19;20026;-83
2022/11/11 09:30:48;;;;;;;70.38;15.05;;;;;;;8.48;100.00;101500.50;12221364;19;20019;-82
2022/11/11 09:35:09;;;;;;;67.40;14.23;;;;;;;8.52;100.00;101493.56;12197803;19;20021;-82
2022/11/11 09:39:29;;;;;;;79.53;16.42;;;;;;;8.60;100.00;101495.34;12222351;19;20021;-82
2022/11/11 09:43:55;;;;;;;56.55;13.55;;;;;;;8.58;100.00;101498.28;12219446;19;20035;-83
2022/11/11 09:48:18;;;;;;;67.85;13.95;;;;;;;8.75;100.00;101487.88;12198393;19;20098;-82
2022/11/11 09:52:57;;;;;;;59.80;15.30;;;;;;;8.79;100.00;101488.34;12217277;19;20031;-82
2022/11/11 09:57:35;;;;;;;58.92;14.13;;;;;;;8.99;100.00;101478.38;12196134;19;20051;-82
2022/11/11 10:01:58;;;;;;;64.57;13.98;;;;;;;9.12;100.00;101483.97;12218915;19;20406;-82
2022/11/11 10:06:25;;;;;;;44.63;12.43;;;;;;;9.29;100.00;101489.19;12196363;19;20434;-82
2022/11/11 10:10:48;;;;;;;43.78;12.65;;;;;;;9.39;100.00;101483.31;12213398;19;20035;-82
2022/11/11 10:15:13;;;;;;;29.23;11.90;;;;;;;9.44;100.00;101481.66;12192390;19;20014;-82
2022/11/11 10:19:46;;;;;;;34.67;11.07;;;;;;;9.53;100.00;101485.09;12218741;19;20024;-82
2022/11/11 10:24:13;;;;;;;34.15;12.38;;;;;;;9.58;100.00;101483.44;12199937;19;20079;-82
2022/11/11 10:28:37;;;;;;;28.10;11.60;;;;;;;9.59;100.00;101498.06;12218097;19;20033;-82
2022/11/11 10:33:21;;;;;;;35.08;11.52;;;;;;;9.65;100.00;101501.91;12191252;19;20027;-82
2022/11/11 10:37:42;;;;;;;35.90;11.18;;;;;;;9.75;100.00;101499.63;12219326;19;20020;-83
2022/11/11 10:42:03;;;;;;;45.38;12.43;;;;;;;9.79;100.00;101495.41;12191949;19;20023;-83
2022/11/11 10:46:41;;;;;;;24.45;10.20;;;;;;;9.79;100.00;101485.25;12213428;19;20027;-82
2022/11/11 10:51:02;;;;;;;25.33;10.73;;;;;;;9.91;100.00;101480.03;12191293;19;20041;-82
2022/11/11 10:55:29;;;;;;;33.90;10.60;;;;;;;10.14;100.00;101470.56;12209794;19;23147;-82
2022/11/11 10:59:58;;;;;;;25.50;10.55;;;;;;;10.22;100.00;101473.13;12190850;19;20013;-83
2022/11/11 11:04:44;;;;;;;27.40;11.85;;;;;;;10.26;100.00;101469.81;12215257;19;20051;-82
2022/11/11 11:09:14;;;;;;;44.47;14.43;;;;;;;10.21;100.00;101475.06;12195224;19;20370;-82
2022/11/11 11:13:57;;;;;;;30.38;11.80;;;;;;;10.22;100.00;101473.97;12219487;19;20035;-82
2022/11/11 11:18:18;;;;;;;;;;;;;;;10.12;100.00;101470.78;12205994;19;20467;-83
2022/11/11 11:22:45;;;;;;;25.05;11.00;;;;;;;10.12;100.00;101464.44;12225362;19;19925;-83
2022/11/11 11:27:07;;;;;;;38.72;12.35;;;;;;;10.30;100.00;101456.47;12202404;19;20094;-84
2022/11/11 11:31:38;;;;;;;30.02;11.77;;;;;;;10.39;100.00;101462.63;12225749;19;20036;-83
2022/11/11 11:36:14;;;;;;;28.77;12.50;;;;;;;10.59;100.00;101465.41;12204756;19;20058;-84
2022/11/11 11:40:47;;;;;;;30.05;13.70;;;;;;;10.67;100.00;101465.22;12230767;19;20035;-84
2022/11/11 11:45:24;;;;;;;38.50;18.83;;;;;;;10.83;100.00;101464.81;12207812;19;20082;-84
2022/11/11 11:49:56;;;;;;;28.17;12.52;;;;;;;10.94;100.00;101461.41;12234469;19;20885;-84
2022/11/11 11:54:37;;;;;;;23.02;12.23;;;;;;;11.01;100.00;101449.56;12211149;19;20017;-85
2022/11/11 11:59:19;;;;;;;25.80;13.40;;;;;;;11.10;100.00;101453.78;12231815;19;20023;-84
2022/11/11 12:04:09;;;;;;;25.73;13.32;;;;;;;11.41;100.00;101451.19;12205322;19;20014;-84
2022/11/11 12:09:03;;;;;;;27.00;12.60;;;;;;;11.39;100.00;101457.97;12234681;19;20021;-85
2022/11/11 12:13:54;;;;;;;32.40;15.65;;;;;;;11.44;100.00;101455.41;12273328;19;20014;-84
2022/11/11 12:18:39;;;;;;;27.48;13.13;;;;;;;11.56;100.00;101441.81;12218569;19;20028;-84
2022/11/11 12:23:10;;;;;;;25.98;12.73;;;;;;;11.68;100.00;101455.78;12232169;19;20023;-84
2022/11/11 12:27:30;;;;;;;22.52;12.45;;;;;;;11.74;100.00;101455.75;12209889;19;20107;-84
2022/11/11 12:32:13;;;;;;;27.33;13.23;;;;;;;11.72;100.00;101455.16;12228809;19;20021;-84
2022/11/11 12:36:55;;;;;;;24.45;12.80;;;;;;;11.78;100.00;101462.56;12206671;19;20046;-84
2022/11/11 12:41:28;;;;;;;25.10;12.68;;;;;;;11.74;100.00;101452.16;12204528;19;20026;-84
2022/11/11 12:45:56;;;;;;;30.50;13.88;;;;;;;11.77;100.00;101455.31;12227517;19;20039;-83
2022/11/11 12:50:25;;;;;;;29.35;14.02;;;;;;;11.67;100.00;101454.94;12205993;19;20038;-83
2022/11/11 12:55:01;;;;;;;27.92;12.32;;;;;;;11.72;100.00;101451.53;12226089;19;20394;-84
2022/11/11 12:59:50;;;;;;;23.05;10.88;;;;;;;11.74;100.00;101455.75;12208236;19;20395;-83
2022/11/11 13:04:34;;;;;;;23.67;12.98;;;;;;;11.71;100.00;101450.69;12226054;19;20053;-84
2022/11/11 13:09:34;;;;;;;23.63;12.23;;;;;;;11.66;100.00;101447.75;12203166;19;20017;-84
2022/11/11 13:14:00;;;;;;;20.17;11.00;;;;;;;11.62;100.00;101446.47;12258336;19;20002;-84
2022/11/11 13:18:47;;;;;;;23.83;10.85;;;;;;;11.72;100.00;101446.88;12240727;19;20400;-84
2022/11/11 13:23:09;;;;;;;24.58;12.07;;;;;;;11.75;100.00;101451.97;12225497;19;20027;-84
2022/11/11 13:27:48;;;;;;;24.20;12.73;;;;;;;11.73;100.00;101436.66;12204675;19;20530;-84
2022/11/11 13:32:12;;;;;;;27.33;12.60;;;;;;;11.68;100.00;101433.69;12218430;19;20484;-84
2022/11/11 13:36:47;;;;;;;27.35;12.50;;;;;;;11.73;100.00;101431.97;12201180;19;20013;-84
2022/11/11 13:41:08;;;;;;;22.95;10.98;;;;;;;11.77;100.00;101424.94;12221007;19;20149;-84
2022/11/11 13:45:42;;;;;;;23.90;12.20;;;;;;;11.81;100.00;101423.47;12194535;19;20027;-84
2022/11/11 13:50:26;;;;;;;22.20;11.02;;;;;;;11.92;100.00;101426.63;12216146;19;20031;-84
2022/11/11 13:55:15;;;;;;;24.50;13.38;;;;;;;11.91;100.00;101428.53;12117230;19;2004274;-84
2022/11/11 13:59:42;;;;;;;23.80;12.30;;;;;;;11.86;100.00;101429.19;12197154;19;20014;-84
2022/11/11 14:04:05;;;;;;;22.90;12.00;;;;;;;11.82;100.00;101427.06;12212015;19;20015;-84
2022/11/11 14:08:51;;;;;;;24.13;13.02;;;;;;;11.75;100.00;101434.50;12191797;19;20014;-84
2022/11/11 14:13:21;;;;;;;22.45;12.65;;;;;;;11.73;100.00;101442.19;12207816;19;20021;-84
2022/11/11 14:17:44;;;;;;;28.17;14.15;;;;;;;11.68;100.00;101436.47;12191690;19;20026;-83
2022/11/11 14:22:32;;;;;;;35.05;15.93;;;;;;;11.59;100.00;101435.84;12207661;19;20104;-83
2022/11/11 14:27:01;;;;;;;38.30;17.08;;;;;;;11.40;100.00;101434.84;12179303;19;20046;-84
2022/11/11 14:31:21;;;;;;;36.47;17.40;;;;;;;11.28;100.00;101434.66;12210513;19;20028;-83
2022/11/11 14:36:02;;;;;;;37.83;17.95;;;;;;;11.04;100.00;101438.94;12187040;19;20019;-83
2022/11/11 14:40:32;;;;;;;34.70;15.93;;;;;;;10.96;100.00;101450.16;12218836;19;20493;-81
2022/11/11 14:44:56;;;;;;;40.85;17.58;;;;;;;10.93;100.00;101440.41;12207513;19;20220;-82
2022/11/11 14:49:42;;;;;;;42.00;19.80;;;;;;;10.88;100.00;101440.19;12231435;19;20035;-82
2022/11/11 14:54:30;;;;;;;39.22;17.58;;;;;;;10.74;100.00;101438.50;12213542;19;20030;-82
2022/11/11 14:58:50;;;;;;;40.95;18.17;;;;;;;10.60;100.00;101451.44;12225585;19;20776;-81
2022/11/11 15:03:37;;;;;;;44.92;18.05;;;;;;;10.49;100.00;101441.84;12206146;19;20026;-82
2022/11/11 15:08:09;;;;;;;37.65;17.77;;;;;;;10.46;100.00;101444.19;12233542;19;20021;-82
2022/11/11 15:12:36;;;;;;;66.68;20.02;;;;;;;10.39;100.00;101446.94;12207820;19;20034;-82
2022/11/11 15:17:13;;;;;;;63.67;18.45;;;;;;;10.23;100.00;101436.25;12222629;19;20027;-82
2022/11/11 15:21:38;;;;;;;63.42;19.27;;;;;;;10.21;100.00;101441.16;12194235;19;20027;-83
2022/11/11 15:26:17;;;;;;;40.67;15.93;;;;;;;10.16;100.00;101443.66;12231252;19;20017;-83
2022/11/11 16:24:55;;;;;;;55.60;18.88;;;;;;;8.97;100.00;101441.97;12213117;19;20074;-83
2022/11/11 16:29:16;;;;;;;33.30;14.98;;;;;;;8.96;100.00;101455.91;12195165;19;20047;-83
2022/11/11 16:33:57;;;;;;;66.80;18.75;;;;;;;8.97;100.00;101441.97;12208525;19;20030;-83
2022/11/11 16:38:55;;;;;;;44.22;16.88;;;;;;;9.00;100.00;101452.56;12209490;19;20141;-82
2022/11/11 16:43:44;;;;;;;44.97;16.17;;;;;;;9.01;100.00;101451.53;12203613;19;20631;-83
2022/11/11 16:48:56;;;;;;;61.70;18.77;;;;;;;9.06;100.00;101445.41;12187412;19;20039;-83
2022/11/11 16:53:57;;;;;;;88.85;22.63;;;;;;;8.98;100.00;101440.06;12182461;19;20035;-83
2022/11/11 16:58:41;;;;;;;76.93;20.70;;;;;;;8.88;100.00;101443.16;12207570;19;20562;-84
2022/11/11 17:03:51;;;;;;;65.57;20.10;;;;;;;8.89;100.00;101442.09;12182300;19;20017;-82
2022/11/11 17:08:59;;;;;;;95.03;21.65;;;;;;;8.92;100.00;101441.69;12211496;19;20027;-83
2022/11/11 17:19:28;;;;;;;;;;;;;;;;;;;;;
2022/11/11 17:40:55;;;;;;;;;;;;;;;;;;;;;
2022/11/11 17:45:33;;;;;;;49.30;16.90;;;;;;;8.78;100.00;101442.66;12209897;19;20053;-84
2022/11/11 18:01:14;;;;;;;;;;;;;;;;;;;;;
2022/11/11 18:06:29;;;;;;;;;;;;;;;;;;;;;
2022/11/11 18:21:30;;;;;;;39.20;16.13;;;;;;;8.94;100.00;101469.84;12240490;19;20023;-84
2022/11/11 18:25:54;;;;;;;37.83;15.88;;;;;;;8.94;100.00;101480.84;12283325;19;20035;-82
2022/11/11 18:30:24;;;;;;;39.63;16.55;;;;;;;8.90;100.00;101485.91;12260283;19;20089;-83
2022/11/11 18:34:44;;;;;;;66.68;19.35;;;;;;;8.89;100.00;101486.09;12281985;19;20571;-82
2022/11/11 18:39:06;;;;;;;40.20;17.33;;;;;;;8.86;100.00;101480.97;12259124;19;20042;-83
2022/11/11 18:43:39;;;;;;;42.40;15.77;;;;;;;8.84;100.00;101475.69;12298430;19;20034;-82
2022/11/11 18:47:59;;;;;;;34.10;15.65;;;;;;;8.86;100.00;101475.47;12306042;19;20018;-84
2022/11/11 18:52:20;;;;;;;31.38;15.65;;;;;;;8.83;100.00;101465.75;12300643;19;20021;-83
2022/11/11 18:56:41;;;;;;;41.88;16.02;;;;;;;8.86;100.00;101472.72;12262654;19;20520;-83
2022/11/11 19:01:06;;;;;;;33.83;14.23;;;;;;;8.86;100.00;101484.59;12277431;19;20039;-83
2022/11/11 19:05:27;;;;;;;60.80;18.65;;;;;;;8.80;100.00;101479.03;12261515;19;20063;-83
2022/11/11 19:09:49;;;;;;;65.30;16.27;;;;;;;8.79;100.00;101480.09;12282358;19;20036;-83
2022/11/11 19:14:11;;;;;;;51.23;16.00;;;;;;;8.73;100.00;101478.13;12265393;19;20027;-83
2022/11/11 19:18:31;;;;;;;34.33;14.57;;;;;;;8.68;100.00;101478.69;12211354;19;20028;-83
2022/11/11 19:22:51;;;;;;;34.95;12.90;;;;;;;8.70;100.00;101478.53;12232060;19;20027;-83
2022/11/11 19:27:12;;;;;;;56.92;16.15;;;;;;;8.60;100.00;101474.22;12210650;19;20031;-83
2022/11/11 19:31:32;;;;;;;73.78;16.42;;;;;;;8.40;100.00;101482.22;12229067;19;20025;-83
2022/11/11 19:36:00;;;;;;;52.60;16.02;;;;;;;8.18;100.00;101486.81;12211587;19;20023;-83
2022/11/11 19:40:20;;;;;;;25.98;11.05;;;;;;;8.19;100.00;101474.78;12232630;19;20116;-83
2022/11/11 19:44:41;;;;;;;39.38;12.38;;;;;;;8.25;100.00;101480.56;12207777;19;20054;-84
2022/11/11 19:49:02;;;;;;;27.67;11.88;;;;;;;8.26;100.00;101474.84;12247924;19;20016;-84
2022/11/11 19:53:22;;;;;;;22.90;11.35;;;;;;;8.29;100.00;101470.88;12237062;19;20017;-83
2022/11/11 19:57:43;;;;;;;66.47;16.38;;;;;;;8.33;100.00;101474.91;12249044;19;20017;-83
2022/11/11 20:02:09;;;;;;;24.52;10.52;;;;;;;8.34;100.00;101480.22;12247799;19;20305;-84
2022/11/11 20:06:40;;;;;;;28.60;10.32;;;;;;;8.35;100.00;101478.34;12228691;19;20023;-84
2022/11/11 20:11:07;;;;;;;22.73;9.82;;;;;;;8.36;100.00;101483.66;12247650;19;20017;-83
2022/11/11 20:15:27;;;;;;;20.48;8.93;;;;;;;8.38;100.00;101489.81;12222444;19;20105;-83
2022/11/11 20:19:50;;;;;;;21.67;10.15;;;;;;;8.40;100.00;101484.13;12236908;19;20020;-84
2022/11/11 20:24:12;;;;;;;18.48;8.60;;;;;;;8.40;100.00;101497.88;12217545;19;20050;-83
2022/11/11 20:28:34;;;;;;;21.45;8.05;;;;;;;8.41;100.00;101499.56;12226137;19;20546;-83
2022/11/11 20:32:55;;;;;;;23.60;8.80;;;;;;;8.29;100.00;101495.59;12201525;19;20034;-83
2022/11/11 20:37:15;;;;;;;19.38;8.20;;;;;;;8.22;100.00;101492.78;12223741;19;20082;-83
2022/11/11 20:41:45;;;;;;;43.80;11.00;;;;;;;8.15;100.00;101495.44;12195795;19;20018;-82
2022/11/11 20:46:38;;;;;;;34.70;10.13;;;;;;;8.05;100.00;101503.13;12217417;19;20009;-83
2022/11/11 20:51:31;;;;;;;29.13;9.20;;;;;;;8.04;100.00;101506.06;12191527;19;20098;-84
2022/11/11 20:56:47;;;;;;;;;;;;;;;;;;;;;
2022/11/11 21:01:36;;;;;;;22.58;9.25;;;;;;;7.86;100.00;101503.72;12079174;19;2004501;-83
2022/11/11 21:06:19;;;;;;;24.48;7.60;;;;;;;7.87;100.00;101499.94;12192234;19;20612;-83
2022/11/11 21:11:14;;;;;;;15.17;7.50;;;;;;;7.89;100.00;101509.69;12216346;19;20085;-84
2022/11/11 21:21:05;;;;;;;13.45;5.93;;;;;;;7.78;100.00;101506.56;12215289;19;20049;-83
2022/11/11 21:26:08;;;;;;;11.25;5.18;;;;;;;7.70;100.00;101493.78;12215780;19;20044;-83
2022/11/11 21:31:41;;;;;;;;;;;;;;;;;;;;;
2022/11/11 21:36:28;;;;;;;12.77;5.18;;;;;;;7.64;100.00;101491.81;12189965;19;20018;-84
2022/11/11 21:41:09;;;;;;;13.10;4.88;;;;;;;7.63;100.00;101503.81;12212335;19;20027;-84
2022/11/11 21:45:40;;;;;;;17.88;5.55;;;;;;;7.59;100.00;101503.34;12194087;19;20009;-84
2022/11/11 21:50:15;;;;;;;10.23;5.07;;;;;;;7.52;100.00;101491.41;12216228;19;20106;-83
2022/11/11 21:54:37;;;;;;;21.65;6.80;;;;;;;7.53;100.00;101482.16;12190301;19;20024;-83
2022/11/11 21:59:01;;;;;;;12.85;5.90;;;;;;;7.52;100.00;101480.44;12214763;19;20024;-83
2022/11/11 22:03:22;;;;;;;11.60;5.85;;;;;;;7.53;100.00;101472.03;12199963;19;20017;-83
2022/11/11 22:07:42;;;;;;;12.70;5.60;;;;;;;7.58;100.00;101479.69;12220476;19;20009;-83
2022/11/11 22:12:02;;;;;;;23.70;7.60;;;;;;;7.59;100.00;101475.94;12200252;19;20021;-82
2022/11/11 22:16:25;;;;;;;22.63;8.63;;;;;;;7.63;100.00;101476.38;12226419;19;20028;-82
2022/11/11 22:20:46;;;;;;;;;;;;;;;7.69;100.00;101475.63;12198522;19;20020;-82
2022/11/11 22:25:06;;;;;;;13.55;6.18;;;;;;;7.68;100.00;101480.28;12215450;19;19922;-82
2022/11/11 22:29:27;;;;;;;13.77;6.05;;;;;;;7.72;100.00;101478.84;12198740;19;20046;-82
2022/11/11 22:33:53;;;;;;;14.25;5.95;;;;;;;7.71;100.00;101479.03;12215298;19;20502;-83
2022/11/11 22:38:14;;;;;;;14.55;5.97;;;;;;;7.71;100.00;101484.53;12219274;19;20071;-83
2022/11/11 22:42:34;;;;;;;42.55;8.93;;;;;;;7.70;100.00;101483.69;12196124;19;20029;-83
2022/11/11 22:46:54;;;;;;;14.38;6.63;;;;;;;7.67;100.00;101477.69;12222626;19;20027;-83
2022/11/11 22:51:15;;;;;;;12.30;6.03;;;;;;;7.73;100.00;101476.94;12209119;19;20031;-82
2022/11/11 23:00:18;;;;;;;13.48;8.00;;;;;;;7.81;100.00;101471.34;12233738;19;20030;-82
2022/11/11 23:04:39;;;;;;;18.35;8.27;;;;;;;7.84;100.00;101461.91;12232491;19;20034;-82
2022/11/11 23:08:59;;;;;;;14.32;6.65;;;;;;;7.85;100.00;101463.59;12217290;19;20500;-82
2022/11/11 23:13:24;;;;;;;11.07;5.50;;;;;;;7.88;100.00;101454.97;12265043;19;20018;-82
2022/11/11 23:23:06;;;;;;;14.23;6.28;;;;;;;7.89;100.00;101452.03;12138247;19;2004504;-82
2022/11/11 23:27:35;;;;;;;15.98;6.05;;;;;;;7.92;100.00;101451.66;12216158;19;20033;-82
2022/11/11 23:31:55;;;;;;;28.42;6.85;;;;;;;7.92;100.00;101451.66;12239786;19;20018;-81